sensor_id;sensor_type;location;lat;lon;timestamp;temperature;humidity
43249;DHT22;29216;51.248;6.808;2023-02-25T00:02:06;4.70;99.90
43249;DHT22;29216;51.248;6.808;2023-02-25T00:04:32;4.80;99.90
43249;DHT22;29216;51.248;6.808;2023-02-25T00:06:59;4.80;99.90
43249;DHT22;29216;51.248;6.808;2023-02-25T00:09:25;4.80;99.90
43249;DHT22;29216;51.248;6.808;2023-02-25T00:11:51;4.80;99.90
43249;DHT22;29216;51.248;6.808;2023-02-25T00:14:17;4.80;99.90
43249;DHT22;29216;51.248;6.808;2023-02-25T00:16:43;4.80;99.90
43249;DHT22;29216;51.248;6.808;2023-02-25T00:19:08;4.80;99.90
43249;DHT22;29216;51.248;6.808;2023-02-25T00:21:35;4.80;99.90
43249;DHT22;29216;51.248;6.808;2023-02-25T00:24:01;4.80;99.90
43249;DHT22;29216;51.248;6.808;2023-02-25T00:26:27;4.80;99.90
43249;DHT22;29216;51.248;6.808;2023-02-25T00:28:52;4.70;99.90
43249;DHT22;29216;51.248;6.808;2023-02-25T00:31:20;4.70;99.90
43249;DHT22;29216;51.248;6.808;2023-02-25T00:33:47;4.70;99.90
43249;DHT22;29216;51.248;6.808;2023-02-25T00:36:15;4.70;99.90
43249;DHT22;29216;51.248;6.808;2023-02-25T00:38:46;4.60;99.90
43249;DHT22;29216;51.248;6.808;2023-02-25T00:41:16;4.60;99.90
43249;DHT22;29216;51.248;6.808;2023-02-25T00:43:47;4.50;99.90
43249;DHT22;29216;51.248;6.808;2023-02-25T00:46:13;4.50;99.90
43249;DHT22;29216;51.248;6.808;2023-02-25T00:48:39;4.60;99.90
43249;DHT22;29216;51.248;6.808;2023-02-25T00:51:07;4.50;99.90
43249;DHT22;29216;51.248;6.808;2023-02-25T00:53:33;4.50;99.90
43249;DHT22;29216;51.248;6.808;2023-02-25T00:56:00;4.60;99.90
43249;DHT22;29216;51.248;6.808;2023-02-25T00:58:26;4.60;99.90
43249;DHT22;29216;51.248;6.808;2023-02-25T01:00:52;4.60;99.90
43249;DHT22;29216;51.248;6.808;2023-02-25T01:03:17;4.60;99.90
43249;DHT22;29216;51.248;6.808;2023-02-25T01:05:43;4.60;99.90
43249;DHT22;29216;51.248;6.808;2023-02-25T01:08:17;4.60;99.90
43249;DHT22;29216;51.248;6.808;2023-02-25T01:10:43;4.60;99.90
43249;DHT22;29216;51.248;6.808;2023-02-25T01:13:09;4.60;99.90
43249;DHT22;29216;51.248;6.808;2023-02-25T01:15:35;4.50;99.90
43249;DHT22;29216;51.248;6.808;2023-02-25T01:18:01;4.50;99.90
43249;DHT22;29216;51.248;6.808;2023-02-25T01:20:26;4.50;99.90
43249;DHT22;29216;51.248;6.808;2023-02-25T01:22:54;4.50;99.90
43249;DHT22;29216;51.248;6.808;2023-02-25T01:25:20;4.50;99.90
43249;DHT22;29216;51.248;6.808;2023-02-25T01:27:46;4.50;99.90
43249;DHT22;29216;51.248;6.808;2023-02-25T01:30:12;4.50;99.90
43249;DHT22;29216;51.248;6.808;2023-02-25T01:32:38;4.50;99.90
43249;DHT22;29216;51.248;6.808;2023-02-25T01:35:04;4.50;99.90
43249;DHT22;29216;51.248;6.808;2023-02-25T01:37:29;4.50;99.90
43249;DHT22;29216;51.248;6.808;2023-02-25T01:39:55;4.60;99.90
43249;DHT22;29216;51.248;6.808;2023-02-25T01:42:21;4.60;99.90
43249;DHT22;29216;51.248;6.808;2023-02-25T01:45:26;4.60;99.90
43249;DHT22;29216;51.248;6.808;2023-02-25T01:48:01;4.60;99.90
43249;DHT22;29216;51.248;6.808;2023-02-25T01:50:37;4.60;99.90
43249;DHT22;29216;51.248;6.808;2023-02-25T01:53:04;4.60;99.90
43249;DHT22;29216;51.248;6.808;2023-02-25T01:55:30;4.60;99.90
43249;DHT22;29216;51.248;6.808;2023-02-25T01:57:59;4.60;99.90
43249;DHT22;29216;51.248;6.808;2023-02-25T02:00:25;4.60;99.90
43249;DHT22;29216;51.248;6.808;2023-02-25T02:02:53;4.50;99.90
43249;DHT22;29216;51.248;6.808;2023-02-25T02:05:23;4.60;99.90
43249;DHT22;29216;51.248;6.808;2023-02-25T02:07:49;4.50;99.90
43249;DHT22;29216;51.248;6.808;2023-02-25T02:10:15;4.50;99.90
43249;DHT22;29216;51.248;6.808;2023-02-25T02:12:43;4.50;99.90
43249;DHT22;29216;51.248;6.808;2023-02-25T02:15:12;4.50;99.90
43249;DHT22;29216;51.248;6.808;2023-02-25T02:17:56;4.50;99.90
43249;DHT22;29216;51.248;6.808;2023-02-25T02:20:32;4.40;99.90
43249;DHT22;29216;51.248;6.808;2023-02-25T02:48:02;4.30;99.90
43249;DHT22;29216;51.248;6.808;2023-02-25T02:50:42;4.30;99.90
43249;DHT22;29216;51.248;6.808;2023-02-25T02:53:21;4.30;99.90
43249;DHT22;29216;51.248;6.808;2023-02-25T02:55:51;4.30;99.90
43249;DHT22;29216;51.248;6.808;2023-02-25T02:58:35;4.40;99.90
43249;DHT22;29216;51.248;6.808;2023-02-25T03:01:06;4.30;99.90
43249;DHT22;29216;51.248;6.808;2023-02-25T03:03:43;4.30;99.90
43249;DHT22;29216;51.248;6.808;2023-02-25T03:06:14;4.40;99.90
43249;DHT22;29216;51.248;6.808;2023-02-25T03:08:44;4.40;99.90
43249;DHT22;29216;51.248;6.808;2023-02-25T03:11:12;4.50;99.90
43249;DHT22;29216;51.248;6.808;2023-02-25T03:13:39;4.50;99.90
43249;DHT22;29216;51.248;6.808;2023-02-25T03:16:09;4.50;99.90
43249;DHT22;29216;51.248;6.808;2023-02-25T03:18:42;4.50;99.90
43249;DHT22;29216;51.248;6.808;2023-02-25T03:21:14;4.50;99.90
43249;DHT22;29216;51.248;6.808;2023-02-25T03:23:44;4.50;99.90
43249;DHT22;29216;51.248;6.808;2023-02-25T03:26:25;4.50;99.90
43249;DHT22;29216;51.248;6.808;2023-02-25T03:28:51;4.50;99.90
43249;DHT22;29216;51.248;6.808;2023-02-25T03:33:57;4.60;99.90
43249;DHT22;29216;51.248;6.808;2023-02-25T03:36:36;4.60;99.90
43249;DHT22;29216;51.248;6.808;2023-02-25T03:39:08;4.60;99.90
43249;DHT22;29216;51.248;6.808;2023-02-25T03:41:38;4.60;99.90
43249;DHT22;29216;51.248;6.808;2023-02-25T03:44:08;4.60;99.90
43249;DHT22;29216;51.248;6.808;2023-02-25T03:46:35;4.60;99.90
43249;DHT22;29216;51.248;6.808;2023-02-25T03:49:03;4.60;99.90
43249;DHT22;29216;51.248;6.808;2023-02-25T03:51:33;4.70;99.90
43249;DHT22;29216;51.248;6.808;2023-02-25T03:54:00;4.70;99.90
43249;DHT22;29216;51.248;6.808;2023-02-25T03:56:26;4.70;99.90
43249;DHT22;29216;51.248;6.808;2023-02-25T03:58:52;4.70;99.90
43249;DHT22;29216;51.248;6.808;2023-02-25T04:01:27;4.70;99.90
43249;DHT22;29216;51.248;6.808;2023-02-25T04:03:54;4.70;99.90
43249;DHT22;29216;51.248;6.808;2023-02-25T04:06:21;4.70;99.90
43249;DHT22;29216;51.248;6.808;2023-02-25T04:08:47;4.70;99.90
43249;DHT22;29216;51.248;6.808;2023-02-25T04:11:13;4.70;99.90
43249;DHT22;29216;51.248;6.808;2023-02-25T04:13:39;4.70;99.90
43249;DHT22;29216;51.248;6.808;2023-02-25T04:16:05;4.60;99.90
43249;DHT22;29216;51.248;6.808;2023-02-25T04:18:33;4.60;99.90
43249;DHT22;29216;51.248;6.808;2023-02-25T04:20:59;4.60;99.90
43249;DHT22;29216;51.248;6.808;2023-02-25T04:23:24;4.70;99.90
43249;DHT22;29216;51.248;6.808;2023-02-25T04:25:50;4.70;99.90
43249;DHT22;29216;51.248;6.808;2023-02-25T04:28:15;4.60;99.90
43249;DHT22;29216;51.248;6.808;2023-02-25T04:30:41;4.70;99.90
43249;DHT22;29216;51.248;6.808;2023-02-25T04:33:09;4.70;99.90
43249;DHT22;29216;51.248;6.808;2023-02-25T04:35:35;4.70;99.90
43249;DHT22;29216;51.248;6.808;2023-02-25T04:38:00;4.70;99.90
43249;DHT22;29216;51.248;6.808;2023-02-25T04:40:26;4.70;99.90
43249;DHT22;29216;51.248;6.808;2023-02-25T04:42:51;4.70;99.90
43249;DHT22;29216;51.248;6.808;2023-02-25T04:45:17;4.70;99.90
43249;DHT22;29216;51.248;6.808;2023-02-25T04:47:43;4.70;99.90
43249;DHT22;29216;51.248;6.808;2023-02-25T04:50:09;4.70;99.90
43249;DHT22;29216;51.248;6.808;2023-02-25T04:52:35;4.70;99.90
43249;DHT22;29216;51.248;6.808;2023-02-25T04:55:02;4.70;99.90
43249;DHT22;29216;51.248;6.808;2023-02-25T04:57:28;4.70;99.90
43249;DHT22;29216;51.248;6.808;2023-02-25T04:59:54;4.60;99.90
43249;DHT22;29216;51.248;6.808;2023-02-25T05:02:19;4.60;99.90
43249;DHT22;29216;51.248;6.808;2023-02-25T05:04:45;4.60;99.90
43249;DHT22;29216;51.248;6.808;2023-02-25T05:07:10;4.60;99.90
43249;DHT22;29216;51.248;6.808;2023-02-25T05:09:36;4.60;99.90
43249;DHT22;29216;51.248;6.808;2023-02-25T05:12:02;4.60;99.90
43249;DHT22;29216;51.248;6.808;2023-02-25T05:14:27;4.70;99.90
43249;DHT22;29216;51.248;6.808;2023-02-25T05:16:53;4.70;99.90
43249;DHT22;29216;51.248;6.808;2023-02-25T05:19:22;4.70;99.90
43249;DHT22;29216;51.248;6.808;2023-02-25T05:21:52;4.60;99.90
43249;DHT22;29216;51.248;6.808;2023-02-25T05:24:18;4.60;99.90
43249;DHT22;29216;51.248;6.808;2023-02-25T05:26:44;4.60;99.90
43249;DHT22;29216;51.248;6.808;2023-02-25T05:29:10;4.60;99.90
43249;DHT22;29216;51.248;6.808;2023-02-25T05:31:36;4.60;99.90
43249;DHT22;29216;51.248;6.808;2023-02-25T05:34:03;4.60;99.90
43249;DHT22;29216;51.248;6.808;2023-02-25T05:36:28;4.60;99.90
43249;DHT22;29216;51.248;6.808;2023-02-25T05:38:55;4.60;99.90
43249;DHT22;29216;51.248;6.808;2023-02-25T05:41:23;4.60;99.90
43249;DHT22;29216;51.248;6.808;2023-02-25T05:43:49;4.60;99.90
43249;DHT22;29216;51.248;6.808;2023-02-25T05:46:15;4.60;99.90
43249;DHT22;29216;51.248;6.808;2023-02-25T05:48:42;4.60;99.90
43249;DHT22;29216;51.248;6.808;2023-02-25T05:51:12;4.60;99.90
43249;DHT22;29216;51.248;6.808;2023-02-25T05:53:38;4.60;99.90
43249;DHT22;29216;51.248;6.808;2023-02-25T05:56:06;4.50;99.90
43249;DHT22;29216;51.248;6.808;2023-02-25T06:01:18;4.50;99.90
43249;DHT22;29216;51.248;6.808;2023-02-25T06:03:45;4.60;99.90
43249;DHT22;29216;51.248;6.808;2023-02-25T06:06:13;4.60;99.90
43249;DHT22;29216;51.248;6.808;2023-02-25T06:08:40;4.60;99.90
43249;DHT22;29216;51.248;6.808;2023-02-25T06:11:07;4.70;99.90
43249;DHT22;29216;51.248;6.808;2023-02-25T06:13:33;4.60;99.90
43249;DHT22;29216;51.248;6.808;2023-02-25T06:16:03;4.60;99.90
43249;DHT22;29216;51.248;6.808;2023-02-25T06:18:29;4.60;99.90
43249;DHT22;29216;51.248;6.808;2023-02-25T06:21:04;4.60;99.90
43249;DHT22;29216;51.248;6.808;2023-02-25T06:23:35;4.60;99.90
43249;DHT22;29216;51.248;6.808;2023-02-25T06:26:01;4.60;99.90
43249;DHT22;29216;51.248;6.808;2023-02-25T06:28:27;4.60;99.90
43249;DHT22;29216;51.248;6.808;2023-02-25T06:30:53;4.60;99.90
43249;DHT22;29216;51.248;6.808;2023-02-25T06:33:19;4.60;99.90
43249;DHT22;29216;51.248;6.808;2023-02-25T06:35:44;4.50;99.90
43249;DHT22;29216;51.248;6.808;2023-02-25T06:38:10;4.50;99.90
43249;DHT22;29216;51.248;6.808;2023-02-25T06:40:37;4.60;99.90
43249;DHT22;29216;51.248;6.808;2023-02-25T06:43:02;4.60;99.90
43249;DHT22;29216;51.248;6.808;2023-02-25T06:45:28;4.70;99.90
43249;DHT22;29216;51.248;6.808;2023-02-25T06:47:53;4.70;99.90
43249;DHT22;29216;51.248;6.808;2023-02-25T06:50:19;4.70;99.90
43249;DHT22;29216;51.248;6.808;2023-02-25T06:52:45;4.80;99.90
43249;DHT22;29216;51.248;6.808;2023-02-25T06:55:10;4.70;99.90
43249;DHT22;29216;51.248;6.808;2023-02-25T06:57:36;4.70;99.90
43249;DHT22;29216;51.248;6.808;2023-02-25T07:00:03;4.70;99.90
43249;DHT22;29216;51.248;6.808;2023-02-25T07:02:30;4.70;99.90
43249;DHT22;29216;51.248;6.808;2023-02-25T07:04:55;4.80;99.90
43249;DHT22;29216;51.248;6.808;2023-02-25T07:07:22;4.80;99.90
43249;DHT22;29216;51.248;6.808;2023-02-25T07:09:51;4.80;99.90
43249;DHT22;29216;51.248;6.808;2023-02-25T07:12:16;5.00;99.90
43249;DHT22;29216;51.248;6.808;2023-02-25T07:14:42;5.00;99.90
43249;DHT22;29216;51.248;6.808;2023-02-25T07:17:08;5.00;99.90
43249;DHT22;29216;51.248;6.808;2023-02-25T07:19:33;5.10;99.90
43249;DHT22;29216;51.248;6.808;2023-02-25T07:21:59;5.20;99.90
43249;DHT22;29216;51.248;6.808;2023-02-25T07:24:25;5.20;99.90
43249;DHT22;29216;51.248;6.808;2023-02-25T07:26:51;5.20;99.90
43249;DHT22;29216;51.248;6.808;2023-02-25T07:29:17;5.30;99.90
43249;DHT22;29216;51.248;6.808;2023-02-25T07:31:42;5.20;99.90
43249;DHT22;29216;51.248;6.808;2023-02-25T07:34:09;5.30;99.90
43249;DHT22;29216;51.248;6.808;2023-02-25T07:36:35;5.40;99.90
43249;DHT22;29216;51.248;6.808;2023-02-25T07:39:07;5.40;99.90
43249;DHT22;29216;51.248;6.808;2023-02-25T07:41:33;5.50;99.90
43249;DHT22;29216;51.248;6.808;2023-02-25T07:43:59;5.60;99.90
43249;DHT22;29216;51.248;6.808;2023-02-25T07:46:25;5.60;99.90
43249;DHT22;29216;51.248;6.808;2023-02-25T07:48:51;5.80;97.70
43249;DHT22;29216;51.248;6.808;2023-02-25T07:51:19;5.80;97.50
43249;DHT22;29216;51.248;6.808;2023-02-25T07:53:46;5.90;98.20
43249;DHT22;29216;51.248;6.808;2023-02-25T07:56:12;6.00;99.90
43249;DHT22;29216;51.248;6.808;2023-02-25T07:58:39;6.00;97.80
43249;DHT22;29216;51.248;6.808;2023-02-25T08:01:09;5.90;99.90
43249;DHT22;29216;51.248;6.808;2023-02-25T08:03:35;5.80;99.80
43249;DHT22;29216;51.248;6.808;2023-02-25T08:06:01;5.80;99.00
43249;DHT22;29216;51.248;6.808;2023-02-25T08:08:31;5.70;99.90
43249;DHT22;29216;51.248;6.808;2023-02-25T08:13:49;5.80;99.90
43249;DHT22;29216;51.248;6.808;2023-02-25T08:16:17;5.80;98.90
43249;DHT22;29216;51.248;6.808;2023-02-25T08:18:43;5.90;99.90
43249;DHT22;29216;51.248;6.808;2023-02-25T08:21:16;5.80;96.90
43249;DHT22;29216;51.248;6.808;2023-02-25T08:23:43;5.90;98.70
43249;DHT22;29216;51.248;6.808;2023-02-25T08:26:09;6.00;96.40
43249;DHT22;29216;51.248;6.808;2023-02-25T08:28:35;5.90;96.40
43249;DHT22;29216;51.248;6.808;2023-02-25T08:31:01;5.90;97.70
43249;DHT22;29216;51.248;6.808;2023-02-25T08:33:27;5.90;99.10
43249;DHT22;29216;51.248;6.808;2023-02-25T08:35:54;5.90;99.90
43249;DHT22;29216;51.248;6.808;2023-02-25T08:38:20;5.80;99.90
43249;DHT22;29216;51.248;6.808;2023-02-25T08:40:45;5.80;99.90
43249;DHT22;29216;51.248;6.808;2023-02-25T08:43:11;5.80;99.90
43249;DHT22;29216;51.248;6.808;2023-02-25T08:45:39;5.70;99.90
43249;DHT22;29216;51.248;6.808;2023-02-25T08:48:05;5.60;99.90
43249;DHT22;29216;51.248;6.808;2023-02-25T08:50:30;5.60;99.90
43249;DHT22;29216;51.248;6.808;2023-02-25T08:52:56;5.50;99.90
43249;DHT22;29216;51.248;6.808;2023-02-25T08:55:23;5.40;99.90
43249;DHT22;29216;51.248;6.808;2023-02-25T08:57:50;5.50;99.90
43249;DHT22;29216;51.248;6.808;2023-02-25T09:00:16;5.60;99.90
43249;DHT22;29216;51.248;6.808;2023-02-25T09:02:42;5.80;99.90
43249;DHT22;29216;51.248;6.808;2023-02-25T09:05:08;6.00;99.90
43249;DHT22;29216;51.248;6.808;2023-02-25T09:07:34;6.20;99.90
43249;DHT22;29216;51.248;6.808;2023-02-25T09:09:59;6.30;99.90
43249;DHT22;29216;51.248;6.808;2023-02-25T09:12:25;6.70;99.90
43249;DHT22;29216;51.248;6.808;2023-02-25T09:14:51;7.10;99.90
43249;DHT22;29216;51.248;6.808;2023-02-25T09:17:16;7.30;95.60
43249;DHT22;29216;51.248;6.808;2023-02-25T09:19:42;7.40;88.70
43249;DHT22;29216;51.248;6.808;2023-02-25T09:22:08;7.40;86.90
43249;DHT22;29216;51.248;6.808;2023-02-25T09:24:34;7.40;80.90
43249;DHT22;29216;51.248;6.808;2023-02-25T09:27:04;7.40;86.50
43249;DHT22;29216;51.248;6.808;2023-02-25T09:29:37;7.60;83.30
43249;DHT22;29216;51.248;6.808;2023-02-25T09:32:03;7.80;76.20
43249;DHT22;29216;51.248;6.808;2023-02-25T09:34:29;7.90;59.80
43249;DHT22;29216;51.248;6.808;2023-02-25T09:36:58;7.90;64.00
43249;DHT22;29216;51.248;6.808;2023-02-25T09:39:24;7.80;58.00
43249;DHT22;29216;51.248;6.808;2023-02-25T09:41:53;7.80;66.80
43249;DHT22;29216;51.248;6.808;2023-02-25T09:44:24;7.70;59.60
43249;DHT22;29216;51.248;6.808;2023-02-25T09:47:00;7.50;62.70
43249;DHT22;29216;51.248;6.808;2023-02-25T09:52:14;7.60;60.70
43249;DHT22;29216;51.248;6.808;2023-02-25T09:54:47;7.80;55.20
43249;DHT22;29216;51.248;6.808;2023-02-25T09:57:19;7.90;53.10
43249;DHT22;29216;51.248;6.808;2023-02-25T09:59:46;8.10;50.40
43249;DHT22;29216;51.248;6.808;2023-02-25T10:27:00;6.10;98.00
43249;DHT22;29216;51.248;6.808;2023-02-25T10:29:42;5.80;99.90
43249;DHT22;29216;51.248;6.808;2023-02-25T10:32:23;5.20;99.90
43249;DHT22;29216;51.248;6.808;2023-02-25T10:34:59;4.80;99.90
43249;DHT22;29216;51.248;6.808;2023-02-25T10:37:30;4.20;99.90
43249;DHT22;29216;51.248;6.808;2023-02-25T10:39:58;3.90;99.90
43249;DHT22;29216;51.248;6.808;2023-02-25T10:42:24;3.70;99.90
43249;DHT22;29216;51.248;6.808;2023-02-25T10:44:51;3.50;99.90
43249;DHT22;29216;51.248;6.808;2023-02-25T10:47:34;3.40;99.90
43249;DHT22;29216;51.248;6.808;2023-02-25T10:50:25;3.30;99.90
43249;DHT22;29216;51.248;6.808;2023-02-25T10:57:57;3.80;99.90
43249;DHT22;29216;51.248;6.808;2023-02-25T11:00:27;3.90;99.90
43249;DHT22;29216;51.248;6.808;2023-02-25T11:02:54;3.90;99.90
43249;DHT22;29216;51.248;6.808;2023-02-25T11:05:41;4.00;99.90
43249;DHT22;29216;51.248;6.808;2023-02-25T11:08:30;4.00;99.90
43249;DHT22;29216;51.248;6.808;2023-02-25T11:13:35;4.20;99.90
43249;DHT22;29216;51.248;6.808;2023-02-25T11:16:12;4.20;99.90
43249;DHT22;29216;51.248;6.808;2023-02-25T11:18:39;4.10;99.90
43249;DHT22;29216;51.248;6.808;2023-02-25T11:21:11;4.10;99.90
43249;DHT22;29216;51.248;6.808;2023-02-25T11:26:06;4.10;99.90
43249;DHT22;29216;51.248;6.808;2023-02-25T11:31:11;4.40;99.90
43249;DHT22;29216;51.248;6.808;2023-02-25T11:33:42;4.50;99.90
43249;DHT22;29216;51.248;6.808;2023-02-25T11:36:10;4.70;99.90
43249;DHT22;29216;51.248;6.808;2023-02-25T11:38:39;5.10;99.90
43249;DHT22;29216;51.248;6.808;2023-02-25T11:41:19;5.40;99.90
43249;DHT22;29216;51.248;6.808;2023-02-25T11:43:46;5.70;99.90
43249;DHT22;29216;51.248;6.808;2023-02-25T11:46:16;5.90;99.90
43249;DHT22;29216;51.248;6.808;2023-02-25T11:51:44;6.10;99.90
43249;DHT22;29216;51.248;6.808;2023-02-25T11:56:41;6.30;78.10
43249;DHT22;29216;51.248;6.808;2023-02-25T12:04:49;6.60;55.00
43249;DHT22;29216;51.248;6.808;2023-02-25T12:10:21;6.50;50.90
43249;DHT22;29216;51.248;6.808;2023-02-25T12:16:44;6.40;26.00
43249;DHT22;29216;51.248;6.808;2023-02-25T12:30:26;7.30;4.40
43249;DHT22;29216;51.248;6.808;2023-02-25T12:33:23;7.30;1.00
43249;DHT22;29216;51.248;6.808;2023-02-25T12:37:06;7.00;1.00
43249;DHT22;29216;51.248;6.808;2023-02-25T12:39:33;6.80;1.00
43249;DHT22;29216;51.248;6.808;2023-02-25T12:50:07;5.70;3.60
43249;DHT22;29216;51.248;6.808;2023-02-25T13:07:12;5.80;1.00
43249;DHT22;29216;51.248;6.808;2023-02-25T13:22:00;6.80;1.00
43249;DHT22;29216;51.248;6.808;2023-02-25T13:27:19;6.60;78.30
43249;DHT22;29216;51.248;6.808;2023-02-25T13:32:45;6.30;84.00
43249;DHT22;29216;51.248;6.808;2023-02-25T13:35:39;6.20;87.20
43249;DHT22;29216;51.248;6.808;2023-02-25T14:09:05;6.10;72.60
43249;DHT22;29216;51.248;6.808;2023-02-25T14:14:31;6.30;73.60
43249;DHT22;29216;51.248;6.808;2023-02-25T14:25:27;6.60;59.10
43249;DHT22;29216;51.248;6.808;2023-02-25T14:39:26;6.20;61.30
43249;DHT22;29216;51.248;6.808;2023-02-25T14:42:10;6.20;62.50
43249;DHT22;29216;51.248;6.808;2023-02-25T14:45:21;6.30;58.20
43249;DHT22;29216;51.248;6.808;2023-02-25T14:47:56;6.30;59.00
43249;DHT22;29216;51.248;6.808;2023-02-25T14:50:53;6.40;58.70
43249;DHT22;29216;51.248;6.808;2023-02-25T14:56:47;6.30;57.40
43249;DHT22;29216;51.248;6.808;2023-02-25T15:13:54;6.00;50.40
43249;DHT22;29216;51.248;6.808;2023-02-25T15:21:36;5.90;48.60
43249;DHT22;29216;51.248;6.808;2023-02-25T15:24:03;5.90;47.40
43249;DHT22;29216;51.248;6.808;2023-02-25T15:26:45;5.80;46.10
43249;DHT22;29216;51.248;6.808;2023-02-25T15:30:04;5.80;45.70
43249;DHT22;29216;51.248;6.808;2023-02-25T15:34:37;5.70;47.70
43249;DHT22;29216;51.248;6.808;2023-02-25T15:42:10;5.70;46.20
43249;DHT22;29216;51.248;6.808;2023-02-25T15:44:43;5.70;47.10
43249;DHT22;29216;51.248;6.808;2023-02-25T15:47:21;5.70;47.30
43249;DHT22;29216;51.248;6.808;2023-02-25T15:49:48;5.60;48.90
43249;DHT22;29216;51.248;6.808;2023-02-25T15:57:54;5.50;48.50
43249;DHT22;29216;51.248;6.808;2023-02-25T16:11:24;5.50;52.30
43249;DHT22;29216;51.248;6.808;2023-02-25T16:13:51;5.40;54.00
43249;DHT22;29216;51.248;6.808;2023-02-25T16:16:17;5.40;56.20
43249;DHT22;29216;51.248;6.808;2023-02-25T16:18:47;5.40;54.80
43249;DHT22;29216;51.248;6.808;2023-02-25T16:21:20;5.40;54.40
43249;DHT22;29216;51.248;6.808;2023-02-25T16:23:46;5.40;52.10
43249;DHT22;29216;51.248;6.808;2023-02-25T16:26:38;5.40;52.10
43249;DHT22;29216;51.248;6.808;2023-02-25T16:29:24;5.30;51.30
43249;DHT22;29216;51.248;6.808;2023-02-25T16:40:38;5.10;51.70
43249;DHT22;29216;51.248;6.808;2023-02-25T16:43:09;5.00;52.30
43249;DHT22;29216;51.248;6.808;2023-02-25T16:45:55;5.00;55.10
43249;DHT22;29216;51.248;6.808;2023-02-25T16:48:31;4.90;53.50
43249;DHT22;29216;51.248;6.808;2023-02-25T16:51:23;4.80;54.30
43249;DHT22;29216;51.248;6.808;2023-02-25T16:53:58;4.80;52.20
43249;DHT22;29216;51.248;6.808;2023-02-25T16:56:29;4.80;52.30
43249;DHT22;29216;51.248;6.808;2023-02-25T16:59:10;4.70;54.50
43249;DHT22;29216;51.248;6.808;2023-02-25T17:01:55;4.70;54.10
43249;DHT22;29216;51.248;6.808;2023-02-25T17:04:31;4.60;55.50
43249;DHT22;29216;51.248;6.808;2023-02-25T17:07:27;4.50;57.30
43249;DHT22;29216;51.248;6.808;2023-02-25T17:09:56;4.30;58.90
43249;DHT22;29216;51.248;6.808;2023-02-25T17:12:40;4.20;59.70
43249;DHT22;29216;51.248;6.808;2023-02-25T17:15:22;4.20;62.30
43249;DHT22;29216;51.248;6.808;2023-02-25T17:18:01;4.20;63.10
43249;DHT22;29216;51.248;6.808;2023-02-25T17:20:27;4.20;62.90
43249;DHT22;29216;51.248;6.808;2023-02-25T17:22:54;4.20;62.40
43249;DHT22;29216;51.248;6.808;2023-02-25T17:25:27;4.20;61.90
43249;DHT22;29216;51.248;6.808;2023-02-25T17:27:54;4.20;61.60
43249;DHT22;29216;51.248;6.808;2023-02-25T17:33:01;4.10;62.60
43249;DHT22;29216;51.248;6.808;2023-02-25T17:35:27;4.10;62.90
43249;DHT22;29216;51.248;6.808;2023-02-25T17:37:54;4.00;62.00
43249;DHT22;29216;51.248;6.808;2023-02-25T17:40:24;4.00;62.40
43249;DHT22;29216;51.248;6.808;2023-02-25T17:45:39;3.90;63.90
43249;DHT22;29216;51.248;6.808;2023-02-25T17:48:16;3.90;63.20
43249;DHT22;29216;51.248;6.808;2023-02-25T17:50:43;3.90;62.20
43249;DHT22;29216;51.248;6.808;2023-02-25T17:56:15;3.80;64.70
43249;DHT22;29216;51.248;6.808;2023-02-25T17:58:43;3.70;66.80
43249;DHT22;29216;51.248;6.808;2023-02-25T18:01:22;3.60;66.90
43249;DHT22;29216;51.248;6.808;2023-02-25T18:03:48;3.50;68.50
43249;DHT22;29216;51.248;6.808;2023-02-25T18:06:37;3.50;71.80
43249;DHT22;29216;51.248;6.808;2023-02-25T18:09:04;3.40;72.30
43249;DHT22;29216;51.248;6.808;2023-02-25T18:11:35;3.40;71.30
43249;DHT22;29216;51.248;6.808;2023-02-25T18:14:27;3.40;73.20
43249;DHT22;29216;51.248;6.808;2023-02-25T18:16:55;3.40;73.00
43249;DHT22;29216;51.248;6.808;2023-02-25T18:19:41;3.40;72.60
43249;DHT22;29216;51.248;6.808;2023-02-25T18:22:35;3.40;74.50
43249;DHT22;29216;51.248;6.808;2023-02-25T18:25:05;3.40;73.80
43249;DHT22;29216;51.248;6.808;2023-02-25T18:27:33;3.40;74.10
43249;DHT22;29216;51.248;6.808;2023-02-25T18:32:36;3.30;76.50
43249;DHT22;29216;51.248;6.808;2023-02-25T18:35:01;3.10;77.40
43249;DHT22;29216;51.248;6.808;2023-02-25T18:37:31;3.10;77.60
43249;DHT22;29216;51.248;6.808;2023-02-25T18:39:57;3.10;80.60
43249;DHT22;29216;51.248;6.808;2023-02-25T18:42:22;3.10;80.00
43249;DHT22;29216;51.248;6.808;2023-02-25T18:44:49;3.00;81.70
43249;DHT22;29216;51.248;6.808;2023-02-25T18:47:14;3.00;82.70
43249;DHT22;29216;51.248;6.808;2023-02-25T18:49:42;2.90;84.60
43249;DHT22;29216;51.248;6.808;2023-02-25T18:52:22;3.00;84.50
43249;DHT22;29216;51.248;6.808;2023-02-25T18:54:49;2.90;85.30
43249;DHT22;29216;51.248;6.808;2023-02-25T18:57:20;2.80;88.10
43249;DHT22;29216;51.248;6.808;2023-02-25T18:59:46;2.70;90.40
43249;DHT22;29216;51.248;6.808;2023-02-25T19:04:52;2.70;90.30
43249;DHT22;29216;51.248;6.808;2023-02-25T19:07:24;2.70;91.00
43249;DHT22;29216;51.248;6.808;2023-02-25T19:09:49;2.60;91.50
43249;DHT22;29216;51.248;6.808;2023-02-25T19:12:16;2.60;92.30
43249;DHT22;29216;51.248;6.808;2023-02-25T19:14:42;2.60;93.20
43249;DHT22;29216;51.248;6.808;2023-02-25T19:17:14;2.60;94.00
43249;DHT22;29216;51.248;6.808;2023-02-25T19:19:41;2.50;94.70
43249;DHT22;29216;51.248;6.808;2023-02-25T19:22:11;2.40;95.40
43249;DHT22;29216;51.248;6.808;2023-02-25T19:24:38;2.40;96.10
43249;DHT22;29216;51.248;6.808;2023-02-25T19:27:03;2.40;97.50
43249;DHT22;29216;51.248;6.808;2023-02-25T19:29:29;2.30;98.80
43249;DHT22;29216;51.248;6.808;2023-02-25T19:31:55;2.30;99.40
43249;DHT22;29216;51.248;6.808;2023-02-25T19:34:20;2.30;99.40
43249;DHT22;29216;51.248;6.808;2023-02-25T19:36:47;2.20;99.90
43249;DHT22;29216;51.248;6.808;2023-02-25T19:39:13;2.20;99.90
43249;DHT22;29216;51.248;6.808;2023-02-25T19:41:39;2.20;99.90
43249;DHT22;29216;51.248;6.808;2023-02-25T19:44:05;2.20;99.90
43249;DHT22;29216;51.248;6.808;2023-02-25T19:46:31;2.20;99.90
43249;DHT22;29216;51.248;6.808;2023-02-25T19:48:56;2.20;99.90
43249;DHT22;29216;51.248;6.808;2023-02-25T19:51:22;2.10;99.90
43249;DHT22;29216;51.248;6.808;2023-02-25T19:53:48;2.10;99.90
43249;DHT22;29216;51.248;6.808;2023-02-25T19:56:13;2.00;99.90
43249;DHT22;29216;51.248;6.808;2023-02-25T19:58:39;2.00;99.90
43249;DHT22;29216;51.248;6.808;2023-02-25T20:01:06;2.00;99.90
43249;DHT22;29216;51.248;6.808;2023-02-25T20:03:33;2.00;99.90
43249;DHT22;29216;51.248;6.808;2023-02-25T20:06:09;1.90;99.90
43249;DHT22;29216;51.248;6.808;2023-02-25T20:08:36;1.90;99.90
43249;DHT22;29216;51.248;6.808;2023-02-25T20:11:07;1.80;99.90
43249;DHT22;29216;51.248;6.808;2023-02-25T20:13:34;1.80;99.90
43249;DHT22;29216;51.248;6.808;2023-02-25T20:16:03;1.80;99.90
43249;DHT22;29216;51.248;6.808;2023-02-25T20:18:28;1.80;99.90
43249;DHT22;29216;51.248;6.808;2023-02-25T20:20:54;1.80;99.90
43249;DHT22;29216;51.248;6.808;2023-02-25T20:23:19;1.80;99.90
43249;DHT22;29216;51.248;6.808;2023-02-25T20:25:46;1.70;99.90
43249;DHT22;29216;51.248;6.808;2023-02-25T20:28:11;1.60;99.90
43249;DHT22;29216;51.248;6.808;2023-02-25T20:30:37;1.60;99.90